sensor_id;sensor_type;location;lat;lon;timestamp;temperature;humidity
15364;DHT22;7781;49.690;6.472;2022-11-20T00:01:40;7.50;99.90
15364;DHT22;7781;49.690;6.472;2022-11-20T00:04:13;7.50;99.90
15364;DHT22;7781;49.690;6.472;2022-11-20T00:06:41;7.50;99.90
15364;DHT22;7781;49.690;6.472;2022-11-20T00:09:14;7.50;99.90
15364;DHT22;7781;49.690;6.472;2022-11-20T00:11:43;7.50;99.90
15364;DHT22;7781;49.690;6.472;2022-11-20T00:14:13;7.50;99.90
15364;DHT22;7781;49.690;6.472;2022-11-20T00:16:42;7.50;99.90
15364;DHT22;7781;49.690;6.472;2022-11-20T00:19:12;7.50;99.90
15364;DHT22;7781;49.690;6.472;2022-11-20T00:21:43;7.50;99.90
15364;DHT22;7781;49.690;6.472;2022-11-20T00:24:13;7.50;99.90
15364;DHT22;7781;49.690;6.472;2022-11-20T00:26:47;7.50;99.90
15364;DHT22;7781;49.690;6.472;2022-11-20T00:29:16;7.50;99.90
15364;DHT22;7781;49.690;6.472;2022-11-20T00:31:46;7.50;99.90
15364;DHT22;7781;49.690;6.472;2022-11-20T00:34:19;7.60;99.90
15364;DHT22;7781;49.690;6.472;2022-11-20T00:36:48;7.60;99.90
15364;DHT22;7781;49.690;6.472;2022-11-20T00:39:17;7.60;99.90
15364;DHT22;7781;49.690;6.472;2022-11-20T00:41:47;7.60;99.90
15364;DHT22;7781;49.690;6.472;2022-11-20T00:44:16;7.60;99.90
15364;DHT22;7781;49.690;6.472;2022-11-20T00:46:45;7.60;99.90
15364;DHT22;7781;49.690;6.472;2022-11-20T00:49:15;7.60;99.90
15364;DHT22;7781;49.690;6.472;2022-11-20T00:51:45;7.60;99.90
15364;DHT22;7781;49.690;6.472;2022-11-20T00:54:14;7.60;99.90
15364;DHT22;7781;49.690;6.472;2022-11-20T00:56:43;7.60;99.90
15364;DHT22;7781;49.690;6.472;2022-11-20T00:59:11;7.60;99.90
15364;DHT22;7781;49.690;6.472;2022-11-20T01:01:41;7.60;99.90
15364;DHT22;7781;49.690;6.472;2022-11-20T01:04:10;7.60;99.90
15364;DHT22;7781;49.690;6.472;2022-11-20T01:06:39;7.60;99.90
15364;DHT22;7781;49.690;6.472;2022-11-20T01:09:11;7.60;99.90
15364;DHT22;7781;49.690;6.472;2022-11-20T01:11:42;7.60;99.90
15364;DHT22;7781;49.690;6.472;2022-11-20T01:14:14;7.60;99.90
15364;DHT22;7781;49.690;6.472;2022-11-20T01:16:44;7.50;99.90
15364;DHT22;7781;49.690;6.472;2022-11-20T01:19:15;7.50;99.90
15364;DHT22;7781;49.690;6.472;2022-11-20T01:21:46;7.60;99.90
15364;DHT22;7781;49.690;6.472;2022-11-20T01:24:18;7.50;99.90
15364;DHT22;7781;49.690;6.472;2022-11-20T01:26:49;7.50;99.90
15364;DHT22;7781;49.690;6.472;2022-11-20T01:29:20;7.50;99.90
15364;DHT22;7781;49.690;6.472;2022-11-20T01:31:50;7.50;99.90
15364;DHT22;7781;49.690;6.472;2022-11-20T01:34:21;7.50;99.90
15364;DHT22;7781;49.690;6.472;2022-11-20T01:36:50;7.50;99.90
15364;DHT22;7781;49.690;6.472;2022-11-20T01:39:22;7.50;99.90
15364;DHT22;7781;49.690;6.472;2022-11-20T01:41:52;7.50;99.90
15364;DHT22;7781;49.690;6.472;2022-11-20T01:44:54;7.50;99.90
15364;DHT22;7781;49.690;6.472;2022-11-20T01:47:29;7.50;99.90
15364;DHT22;7781;49.690;6.472;2022-11-20T01:50:04;7.50;99.90
15364;DHT22;7781;49.690;6.472;2022-11-20T01:52:36;7.50;99.90
15364;DHT22;7781;49.690;6.472;2022-11-20T01:55:11;7.50;99.90
15364;DHT22;7781;49.690;6.472;2022-11-20T01:57:44;7.50;99.90
15364;DHT22;7781;49.690;6.472;2022-11-20T02:00:15;7.40;99.90
15364;DHT22;7781;49.690;6.472;2022-11-20T02:02:50;7.40;99.90
15364;DHT22;7781;49.690;6.472;2022-11-20T02:05:31;7.40;99.90
15364;DHT22;7781;49.690;6.472;2022-11-20T02:08:03;7.40;99.90
15364;DHT22;7781;49.690;6.472;2022-11-20T02:10:34;7.40;99.90
15364;DHT22;7781;49.690;6.472;2022-11-20T02:13:05;7.40;99.90
15364;DHT22;7781;49.690;6.472;2022-11-20T02:15:51;7.40;99.90
15364;DHT22;7781;49.690;6.472;2022-11-20T02:18:21;7.40;99.90
15364;DHT22;7781;49.690;6.472;2022-11-20T02:20:53;7.40;99.90
15364;DHT22;7781;49.690;6.472;2022-11-20T02:23:28;7.40;99.90
15364;DHT22;7781;49.690;6.472;2022-11-20T02:26:07;7.40;99.90
15364;DHT22;7781;49.690;6.472;2022-11-20T02:28:39;7.40;99.90
15364;DHT22;7781;49.690;6.472;2022-11-20T02:31:07;7.40;99.90
15364;DHT22;7781;49.690;6.472;2022-11-20T02:33:36;7.50;99.90
15364;DHT22;7781;49.690;6.472;2022-11-20T02:36:08;7.40;99.90
15364;DHT22;7781;49.690;6.472;2022-11-20T02:38:42;7.40;99.90
15364;DHT22;7781;49.690;6.472;2022-11-20T02:41:16;7.50;99.90
15364;DHT22;7781;49.690;6.472;2022-11-20T02:43:45;7.50;99.90
15364;DHT22;7781;49.690;6.472;2022-11-20T02:46:14;7.50;99.90
15364;DHT22;7781;49.690;6.472;2022-11-20T02:48:44;7.50;99.90
15364;DHT22;7781;49.690;6.472;2022-11-20T02:51:13;7.50;99.90
15364;DHT22;7781;49.690;6.472;2022-11-20T02:53:42;7.50;99.90
15364;DHT22;7781;49.690;6.472;2022-11-20T02:56:11;7.40;99.90
15364;DHT22;7781;49.690;6.472;2022-11-20T02:58:42;7.50;99.90
15364;DHT22;7781;49.690;6.472;2022-11-20T03:01:11;7.40;99.90
15364;DHT22;7781;49.690;6.472;2022-11-20T03:03:41;7.40;99.90
15364;DHT22;7781;49.690;6.472;2022-11-20T03:06:09;7.40;99.90
15364;DHT22;7781;49.690;6.472;2022-11-20T03:08:39;7.40;99.90
15364;DHT22;7781;49.690;6.472;2022-11-20T03:11:11;7.40;99.90
15364;DHT22;7781;49.690;6.472;2022-11-20T03:13:39;7.40;99.90
15364;DHT22;7781;49.690;6.472;2022-11-20T03:16:12;7.40;99.90
15364;DHT22;7781;49.690;6.472;2022-11-20T03:18:41;7.40;99.90
15364;DHT22;7781;49.690;6.472;2022-11-20T03:21:11;7.40;99.90
15364;DHT22;7781;49.690;6.472;2022-11-20T03:23:40;7.40;99.90
15364;DHT22;7781;49.690;6.472;2022-11-20T03:26:22;7.40;99.90
15364;DHT22;7781;49.690;6.472;2022-11-20T03:28:53;7.40;99.90
15364;DHT22;7781;49.690;6.472;2022-11-20T03:31:25;7.40;99.90
15364;DHT22;7781;49.690;6.472;2022-11-20T03:33:55;7.40;99.90
15364;DHT22;7781;49.690;6.472;2022-11-20T03:36:26;7.40;99.90
15364;DHT22;7781;49.690;6.472;2022-11-20T03:38:56;7.40;99.90
15364;DHT22;7781;49.690;6.472;2022-11-20T03:41:26;7.40;99.90
15364;DHT22;7781;49.690;6.472;2022-11-20T03:43:57;7.40;99.90
15364;DHT22;7781;49.690;6.472;2022-11-20T03:46:28;7.40;99.90
15364;DHT22;7781;49.690;6.472;2022-11-20T03:48:57;7.40;99.90
15364;DHT22;7781;49.690;6.472;2022-11-20T03:51:29;7.40;99.90
15364;DHT22;7781;49.690;6.472;2022-11-20T03:54:01;7.40;99.90
15364;DHT22;7781;49.690;6.472;2022-11-20T03:56:32;7.40;99.90
15364;DHT22;7781;49.690;6.472;2022-11-20T03:59:02;7.40;99.90
15364;DHT22;7781;49.690;6.472;2022-11-20T04:01:35;7.40;99.90
15364;DHT22;7781;49.690;6.472;2022-11-20T04:04:05;7.40;99.90
15364;DHT22;7781;49.690;6.472;2022-11-20T04:06:35;7.40;99.90
15364;DHT22;7781;49.690;6.472;2022-11-20T04:09:06;7.40;99.90
15364;DHT22;7781;49.690;6.472;2022-11-20T04:11:36;7.40;99.90
15364;DHT22;7781;49.690;6.472;2022-11-20T04:14:12;7.40;99.90
15364;DHT22;7781;49.690;6.472;2022-11-20T04:16:43;7.40;99.90
15364;DHT22;7781;49.690;6.472;2022-11-20T04:19:14;7.40;99.90
15364;DHT22;7781;49.690;6.472;2022-11-20T04:21:44;7.40;99.90
15364;DHT22;7781;49.690;6.472;2022-11-20T04:24:13;7.40;99.90
15364;DHT22;7781;49.690;6.472;2022-11-20T04:26:41;7.40;99.90
15364;DHT22;7781;49.690;6.472;2022-11-20T04:29:11;7.40;99.90
15364;DHT22;7781;49.690;6.472;2022-11-20T04:31:43;7.40;99.90
15364;DHT22;7781;49.690;6.472;2022-11-20T04:34:14;7.40;99.90
15364;DHT22;7781;49.690;6.472;2022-11-20T04:36:42;7.40;99.90
15364;DHT22;7781;49.690;6.472;2022-11-20T04:39:13;7.40;99.90
15364;DHT22;7781;49.690;6.472;2022-11-20T04:41:42;7.40;99.90
15364;DHT22;7781;49.690;6.472;2022-11-20T04:44:11;7.40;99.90
15364;DHT22;7781;49.690;6.472;2022-11-20T04:46:43;7.40;99.90
15364;DHT22;7781;49.690;6.472;2022-11-20T04:49:11;7.40;99.90
15364;DHT22;7781;49.690;6.472;2022-11-20T04:51:40;7.40;99.90
15364;DHT22;7781;49.690;6.472;2022-11-20T04:54:11;7.40;99.90
15364;DHT22;7781;49.690;6.472;2022-11-20T04:56:41;7.40;99.90
15364;DHT22;7781;49.690;6.472;2022-11-20T04:59:10;7.40;99.90
15364;DHT22;7781;49.690;6.472;2022-11-20T05:01:40;7.50;99.90
15364;DHT22;7781;49.690;6.472;2022-11-20T05:04:10;7.50;99.90
15364;DHT22;7781;49.690;6.472;2022-11-20T05:06:40;7.40;99.90
15364;DHT22;7781;49.690;6.472;2022-11-20T05:09:10;7.40;99.90
15364;DHT22;7781;49.690;6.472;2022-11-20T05:11:39;7.40;99.90
15364;DHT22;7781;49.690;6.472;2022-11-20T05:14:07;7.40;99.90
15364;DHT22;7781;49.690;6.472;2022-11-20T05:16:38;7.40;99.90
15364;DHT22;7781;49.690;6.472;2022-11-20T05:19:09;7.40;99.90
15364;DHT22;7781;49.690;6.472;2022-11-20T05:21:38;7.40;99.90
15364;DHT22;7781;49.690;6.472;2022-11-20T05:24:09;7.40;99.90
15364;DHT22;7781;49.690;6.472;2022-11-20T05:26:41;7.40;99.90
15364;DHT22;7781;49.690;6.472;2022-11-20T05:29:10;7.40;99.90
15364;DHT22;7781;49.690;6.472;2022-11-20T05:31:41;7.40;99.90
15364;DHT22;7781;49.690;6.472;2022-11-20T05:34:11;7.40;99.90
15364;DHT22;7781;49.690;6.472;2022-11-20T05:36:41;7.40;99.90
15364;DHT22;7781;49.690;6.472;2022-11-20T05:39:10;7.40;99.90
15364;DHT22;7781;49.690;6.472;2022-11-20T05:41:38;7.40;99.90
15364;DHT22;7781;49.690;6.472;2022-11-20T05:44:09;7.40;99.90
15364;DHT22;7781;49.690;6.472;2022-11-20T05:46:38;7.40;99.90
15364;DHT22;7781;49.690;6.472;2022-11-20T05:49:07;7.40;99.90
15364;DHT22;7781;49.690;6.472;2022-11-20T05:51:37;7.40;99.90
15364;DHT22;7781;49.690;6.472;2022-11-20T05:54:05;7.40;99.90
15364;DHT22;7781;49.690;6.472;2022-11-20T05:56:35;7.40;99.90
15364;DHT22;7781;49.690;6.472;2022-11-20T05:59:06;7.40;99.90
15364;DHT22;7781;49.690;6.472;2022-11-20T06:01:37;7.50;99.90
15364;DHT22;7781;49.690;6.472;2022-11-20T06:04:06;7.40;99.90
15364;DHT22;7781;49.690;6.472;2022-11-20T06:06:37;7.50;99.90
15364;DHT22;7781;49.690;6.472;2022-11-20T06:09:07;7.40;99.90
15364;DHT22;7781;49.690;6.472;2022-11-20T06:11:35;7.40;99.90
15364;DHT22;7781;49.690;6.472;2022-11-20T06:14:04;7.50;99.90
15364;DHT22;7781;49.690;6.472;2022-11-20T06:16:35;7.50;99.90
15364;DHT22;7781;49.690;6.472;2022-11-20T06:19:04;7.50;99.90
15364;DHT22;7781;49.690;6.472;2022-11-20T06:21:33;7.50;99.90
15364;DHT22;7781;49.690;6.472;2022-11-20T06:24:06;7.40;99.90
15364;DHT22;7781;49.690;6.472;2022-11-20T06:26:37;7.40;99.90
15364;DHT22;7781;49.690;6.472;2022-11-20T06:29:05;7.50;99.90
15364;DHT22;7781;49.690;6.472;2022-11-20T06:31:34;7.40;99.90
15364;DHT22;7781;49.690;6.472;2022-11-20T06:34:04;7.40;99.90
15364;DHT22;7781;49.690;6.472;2022-11-20T06:36:34;7.40;99.90
15364;DHT22;7781;49.690;6.472;2022-11-20T06:39:05;7.40;99.90
15364;DHT22;7781;49.690;6.472;2022-11-20T06:41:34;7.50;99.90
15364;DHT22;7781;49.690;6.472;2022-11-20T06:44:04;7.40;99.90
15364;DHT22;7781;49.690;6.472;2022-11-20T06:46:33;7.40;99.90
15364;DHT22;7781;49.690;6.472;2022-11-20T06:49:02;7.40;99.90
15364;DHT22;7781;49.690;6.472;2022-11-20T06:51:30;7.40;99.90
15364;DHT22;7781;49.690;6.472;2022-11-20T06:53:59;7.40;99.90
15364;DHT22;7781;49.690;6.472;2022-11-20T06:56:30;7.40;99.90
15364;DHT22;7781;49.690;6.472;2022-11-20T06:59:04;7.40;99.90
15364;DHT22;7781;49.690;6.472;2022-11-20T07:01:34;7.40;99.90
15364;DHT22;7781;49.690;6.472;2022-11-20T07:04:05;7.40;99.90
15364;DHT22;7781;49.690;6.472;2022-11-20T07:06:34;7.40;99.90
15364;DHT22;7781;49.690;6.472;2022-11-20T07:09:03;7.40;99.90
15364;DHT22;7781;49.690;6.472;2022-11-20T07:11:49;7.30;99.90
15364;DHT22;7781;49.690;6.472;2022-11-20T07:14:18;7.40;99.90
15364;DHT22;7781;49.690;6.472;2022-11-20T07:16:46;7.40;99.90
15364;DHT22;7781;49.690;6.472;2022-11-20T07:19:16;7.40;99.90
15364;DHT22;7781;49.690;6.472;2022-11-20T07:21:44;7.40;99.90
15364;DHT22;7781;49.690;6.472;2022-11-20T07:24:15;7.40;99.90
15364;DHT22;7781;49.690;6.472;2022-11-20T07:26:46;7.40;99.90
15364;DHT22;7781;49.690;6.472;2022-11-20T07:29:17;7.40;99.90
15364;DHT22;7781;49.690;6.472;2022-11-20T07:31:46;7.40;99.90
15364;DHT22;7781;49.690;6.472;2022-11-20T07:34:16;7.40;99.90
15364;DHT22;7781;49.690;6.472;2022-11-20T07:36:45;7.40;99.90
15364;DHT22;7781;49.690;6.472;2022-11-20T07:39:14;7.40;99.90
15364;DHT22;7781;49.690;6.472;2022-11-20T07:41:43;7.40;99.90
15364;DHT22;7781;49.690;6.472;2022-11-20T07:44:12;7.40;99.90
15364;DHT22;7781;49.690;6.472;2022-11-20T07:46:43;7.50;99.90
15364;DHT22;7781;49.690;6.472;2022-11-20T07:49:12;7.40;99.90
15364;DHT22;7781;49.690;6.472;2022-11-20T07:51:43;7.40;99.90
15364;DHT22;7781;49.690;6.472;2022-11-20T07:54:18;7.40;99.90
15364;DHT22;7781;49.690;6.472;2022-11-20T07:56:48;7.50;99.90
15364;DHT22;7781;49.690;6.472;2022-11-20T07:59:17;7.50;99.90
15364;DHT22;7781;49.690;6.472;2022-11-20T08:01:48;7.50;99.90
15364;DHT22;7781;49.690;6.472;2022-11-20T08:04:17;7.50;99.90
15364;DHT22;7781;49.690;6.472;2022-11-20T08:06:46;7.50;99.90
15364;DHT22;7781;49.690;6.472;2022-11-20T08:09:15;7.50;99.90
15364;DHT22;7781;49.690;6.472;2022-11-20T08:11:44;7.50;99.90
15364;DHT22;7781;49.690;6.472;2022-11-20T08:14:31;7.50;99.90
15364;DHT22;7781;49.690;6.472;2022-11-20T08:17:02;7.50;99.90
15364;DHT22;7781;49.690;6.472;2022-11-20T08:19:31;7.50;99.90
15364;DHT22;7781;49.690;6.472;2022-11-20T08:22:01;7.50;99.90
15364;DHT22;7781;49.690;6.472;2022-11-20T08:24:29;7.50;99.90
15364;DHT22;7781;49.690;6.472;2022-11-20T08:26:59;7.50;99.90
15364;DHT22;7781;49.690;6.472;2022-11-20T08:29:28;7.60;99.90
15364;DHT22;7781;49.690;6.472;2022-11-20T08:31:57;7.60;99.90
15364;DHT22;7781;49.690;6.472;2022-11-20T08:34:28;7.60;99.90
15364;DHT22;7781;49.690;6.472;2022-11-20T08:36:56;7.60;99.90
15364;DHT22;7781;49.690;6.472;2022-11-20T08:39:25;7.60;99.90
15364;DHT22;7781;49.690;6.472;2022-11-20T08:41:55;7.60;99.90
15364;DHT22;7781;49.690;6.472;2022-11-20T08:44:25;7.60;99.90
15364;DHT22;7781;49.690;6.472;2022-11-20T08:46:54;7.60;99.90
15364;DHT22;7781;49.690;6.472;2022-11-20T08:49:23;7.60;99.90
15364;DHT22;7781;49.690;6.472;2022-11-20T08:51:53;7.60;99.90
15364;DHT22;7781;49.690;6.472;2022-11-20T08:54:22;7.50;99.90
15364;DHT22;7781;49.690;6.472;2022-11-20T08:56:51;7.50;99.90
15364;DHT22;7781;49.690;6.472;2022-11-20T08:59:21;7.40;99.90
15364;DHT22;7781;49.690;6.472;2022-11-20T09:02:09;7.40;99.90
15364;DHT22;7781;49.690;6.472;2022-11-20T09:04:40;7.40;99.90
15364;DHT22;7781;49.690;6.472;2022-11-20T09:07:12;7.50;99.90
15364;DHT22;7781;49.690;6.472;2022-11-20T09:09:41;7.50;99.90
15364;DHT22;7781;49.690;6.472;2022-11-20T09:12:10;7.50;99.90
15364;DHT22;7781;49.690;6.472;2022-11-20T09:14:40;7.50;99.90
15364;DHT22;7781;49.690;6.472;2022-11-20T09:17:11;7.60;99.90
15364;DHT22;7781;49.690;6.472;2022-11-20T09:19:41;7.60;99.90
15364;DHT22;7781;49.690;6.472;2022-11-20T09:22:13;7.70;99.90
15364;DHT22;7781;49.690;6.472;2022-11-20T09:24:42;7.70;99.90
15364;DHT22;7781;49.690;6.472;2022-11-20T09:27:11;7.70;99.90
15364;DHT22;7781;49.690;6.472;2022-11-20T09:29:40;7.80;99.90
15364;DHT22;7781;49.690;6.472;2022-11-20T09:32:09;7.80;99.90
15364;DHT22;7781;49.690;6.472;2022-11-20T09:34:37;7.90;99.90
15364;DHT22;7781;49.690;6.472;2022-11-20T09:37:08;7.90;99.90
15364;DHT22;7781;49.690;6.472;2022-11-20T09:39:38;7.90;99.90
15364;DHT22;7781;49.690;6.472;2022-11-20T09:42:22;8.00;99.90
15364;DHT22;7781;49.690;6.472;2022-11-20T09:45:05;8.00;99.90
15364;DHT22;7781;49.690;6.472;2022-11-20T09:47:50;8.10;99.90
15364;DHT22;7781;49.690;6.472;2022-11-20T09:50:31;8.10;99.90
15364;DHT22;7781;49.690;6.472;2022-11-20T09:53:12;8.20;99.90
15364;DHT22;7781;49.690;6.472;2022-11-20T09:55:42;8.20;99.90
15364;DHT22;7781;49.690;6.472;2022-11-20T09:58:16;8.20;99.90
15364;DHT22;7781;49.690;6.472;2022-11-20T10:00:51;8.30;99.90
15364;DHT22;7781;49.690;6.472;2022-11-20T10:03:34;8.30;99.90
15364;DHT22;7781;49.690;6.472;2022-11-20T10:06:05;8.30;99.90
15364;DHT22;7781;49.690;6.472;2022-11-20T10:08:41;8.40;99.90
15364;DHT22;7781;49.690;6.472;2022-11-20T10:11:17;8.40;99.90
15364;DHT22;7781;49.690;6.472;2022-11-20T10:13:56;8.30;99.90
15364;DHT22;7781;49.690;6.472;2022-11-20T10:16:40;8.30;99.90
15364;DHT22;7781;49.690;6.472;2022-11-20T10:19:22;8.50;99.90
15364;DHT22;7781;49.690;6.472;2022-11-20T10:22:00;8.50;99.90
15364;DHT22;7781;49.690;6.472;2022-11-20T10:24:44;8.50;99.90
15364;DHT22;7781;49.690;6.472;2022-11-20T10:27:52;8.60;99.90
15364;DHT22;7781;49.690;6.472;2022-11-20T10:30:24;8.60;99.90
15364;DHT22;7781;49.690;6.472;2022-11-20T10:33:03;8.60;99.90
15364;DHT22;7781;49.690;6.472;2022-11-20T10:35:37;8.60;99.90
15364;DHT22;7781;49.690;6.472;2022-11-20T10:38:12;8.60;99.90
15364;DHT22;7781;49.690;6.472;2022-11-20T10:40:45;8.50;99.90
15364;DHT22;7781;49.690;6.472;2022-11-20T10:43:19;8.50;99.90
15364;DHT22;7781;49.690;6.472;2022-11-20T10:45:55;8.50;99.90
15364;DHT22;7781;49.690;6.472;2022-11-20T10:48:27;8.60;99.90
15364;DHT22;7781;49.690;6.472;2022-11-20T10:51:10;8.60;99.90
15364;DHT22;7781;49.690;6.472;2022-11-20T10:53:51;8.60;99.90
15364;DHT22;7781;49.690;6.472;2022-11-20T10:56:27;8.70;99.90
15364;DHT22;7781;49.690;6.472;2022-11-20T10:59:18;8.80;99.90
15364;DHT22;7781;49.690;6.472;2022-11-20T11:01:51;8.80;99.90
15364;DHT22;7781;49.690;6.472;2022-11-20T11:04:33;8.90;99.90
15364;DHT22;7781;49.690;6.472;2022-11-20T11:07:09;8.90;99.90
15364;DHT22;7781;49.690;6.472;2022-11-20T11:09:43;9.00;99.90
15364;DHT22;7781;49.690;6.472;2022-11-20T11:12:12;8.90;99.90
15364;DHT22;7781;49.690;6.472;2022-11-20T11:14:49;8.90;99.90
15364;DHT22;7781;49.690;6.472;2022-11-20T11:17:27;8.80;99.90
15364;DHT22;7781;49.690;6.472;2022-11-20T11:20:06;8.70;99.90
15364;DHT22;7781;49.690;6.472;2022-11-20T11:22:44;8.70;99.90
15364;DHT22;7781;49.690;6.472;2022-11-20T11:25:22;8.70;99.90
15364;DHT22;7781;49.690;6.472;2022-11-20T11:27:53;8.80;99.90
15364;DHT22;7781;49.690;6.472;2022-11-20T11:30:26;8.80;99.90
15364;DHT22;7781;49.690;6.472;2022-11-20T11:33:06;8.80;99.90
15364;DHT22;7781;49.690;6.472;2022-11-20T11:35:44;8.70;99.90
15364;DHT22;7781;49.690;6.472;2022-11-20T11:38:21;8.80;99.90
15364;DHT22;7781;49.690;6.472;2022-11-20T11:40:53;8.90;99.90
15364;DHT22;7781;49.690;6.472;2022-11-20T11:43:25;8.80;99.90
15364;DHT22;7781;49.690;6.472;2022-11-20T11:46:29;8.80;99.90
15364;DHT22;7781;49.690;6.472;2022-11-20T11:49:01;8.80;99.90
15364;DHT22;7781;49.690;6.472;2022-11-20T11:51:36;8.80;99.90
15364;DHT22;7781;49.690;6.472;2022-11-20T11:54:14;8.80;99.90
15364;DHT22;7781;49.690;6.472;2022-11-20T11:56:47;8.80;99.90
15364;DHT22;7781;49.690;6.472;2022-11-20T11:59:25;8.80;99.90
15364;DHT22;7781;49.690;6.472;2022-11-20T12:02:00;8.90;99.90
15364;DHT22;7781;49.690;6.472;2022-11-20T12:04:42;8.90;99.90
15364;DHT22;7781;49.690;6.472;2022-11-20T12:07:15;8.90;99.90
15364;DHT22;7781;49.690;6.472;2022-11-20T12:10:18;8.90;99.90
15364;DHT22;7781;49.690;6.472;2022-11-20T12:12:52;8.70;99.90
15364;DHT22;7781;49.690;6.472;2022-11-20T12:15:33;8.70;99.90
15364;DHT22;7781;49.690;6.472;2022-11-20T12:18:08;8.60;99.90
15364;DHT22;7781;49.690;6.472;2022-11-20T12:20:52;8.50;99.90
15364;DHT22;7781;49.690;6.472;2022-11-20T12:23:27;8.40;99.90
15364;DHT22;7781;49.690;6.472;2022-11-20T12:26:04;8.40;99.90
15364;DHT22;7781;49.690;6.472;2022-11-20T12:28:45;8.40;99.90
15364;DHT22;7781;49.690;6.472;2022-11-20T12:31:37;8.40;99.90
15364;DHT22;7781;49.690;6.472;2022-11-20T12:34:23;8.40;99.90
15364;DHT22;7781;49.690;6.472;2022-11-20T12:36:59;8.50;99.90
15364;DHT22;7781;49.690;6.472;2022-11-20T12:39:40;8.40;99.90
15364;DHT22;7781;49.690;6.472;2022-11-20T12:42:27;8.40;99.90
15364;DHT22;7781;49.690;6.472;2022-11-20T12:45:31;8.40;99.90
15364;DHT22;7781;49.690;6.472;2022-11-20T12:48:20;8.40;99.90
15364;DHT22;7781;49.690;6.472;2022-11-20T12:51:05;8.40;99.90
15364;DHT22;7781;49.690;6.472;2022-11-20T12:53:49;8.30;99.90
15364;DHT22;7781;49.690;6.472;2022-11-20T12:56:30;8.30;99.90
15364;DHT22;7781;49.690;6.472;2022-11-20T12:59:21;8.30;99.90
15364;DHT22;7781;49.690;6.472;2022-11-20T13:01:58;8.30;99.90
15364;DHT22;7781;49.690;6.472;2022-11-20T13:04:39;8.30;99.90
15364;DHT22;7781;49.690;6.472;2022-11-20T13:07:15;8.30;99.90
15364;DHT22;7781;49.690;6.472;2022-11-20T13:09:47;8.30;99.90
15364;DHT22;7781;49.690;6.472;2022-11-20T13:12:24;8.30;99.90
15364;DHT22;7781;49.690;6.472;2022-11-20T13:15:01;8.30;99.90
15364;DHT22;7781;49.690;6.472;2022-11-20T13:17:34;8.30;99.90
15364;DHT22;7781;49.690;6.472;2022-11-20T13:20:12;8.30;99.90
15364;DHT22;7781;49.690;6.472;2022-11-20T13:22:46;8.30;99.90
15364;DHT22;7781;49.690;6.472;2022-11-20T13:25:24;8.30;99.90
15364;DHT22;7781;49.690;6.472;2022-11-20T13:27:55;8.30;99.90
15364;DHT22;7781;49.690;6.472;2022-11-20T13:30:26;8.40;99.90
15364;DHT22;7781;49.690;6.472;2022-11-20T13:32:57;8.30;99.90
15364;DHT22;7781;49.690;6.472;2022-11-20T13:35:30;8.30;99.90
15364;DHT22;7781;49.690;6.472;2022-11-20T13:38:04;8.30;99.90
15364;DHT22;7781;49.690;6.472;2022-11-20T13:40:34;8.30;99.90
15364;DHT22;7781;49.690;6.472;2022-11-20T13:43:14;8.20;99.90
15364;DHT22;7781;49.690;6.472;2022-11-20T13:45:54;8.20;99.90
15364;DHT22;7781;49.690;6.472;2022-11-20T13:48:24;8.20;99.90
15364;DHT22;7781;49.690;6.472;2022-11-20T13:51:03;8.20;99.90
15364;DHT22;7781;49.690;6.472;2022-11-20T13:53:58;8.20;99.90
15364;DHT22;7781;49.690;6.472;2022-11-20T13:56:39;8.20;99.90
15364;DHT22;7781;49.690;6.472;2022-11-20T13:59:17;8.10;99.90
15364;DHT22;7781;49.690;6.472;2022-11-20T14:01:49;8.10;99.90
15364;DHT22;7781;49.690;6.472;2022-11-20T14:04:21;8.10;99.90
15364;DHT22;7781;49.690;6.472;2022-11-20T14:06:54;8.10;99.90
15364;DHT22;7781;49.690;6.472;2022-11-20T14:09:30;8.10;99.90
15364;DHT22;7781;49.690;6.472;2022-11-20T14:11:58;8.10;99.90
15364;DHT22;7781;49.690;6.472;2022-11-20T14:14:28;8.10;99.90
15364;DHT22;7781;49.690;6.472;2022-11-20T14:17:05;8.00;99.90
15364;DHT22;7781;49.690;6.472;2022-11-20T14:19:35;8.00;99.90
15364;DHT22;7781;49.690;6.472;2022-11-20T14:22:14;8.00;99.90
15364;DHT22;7781;49.690;6.472;2022-11-20T14:24:49;8.00;99.90
15364;DHT22;7781;49.690;6.472;2022-11-20T14:27:20;7.90;99.90
15364;DHT22;7781;49.690;6.472;2022-11-20T14:29:50;7.90;99.90
15364;DHT22;7781;49.690;6.472;2022-11-20T14:32:21;7.90;99.90
15364;DHT22;7781;49.690;6.472;2022-11-20T14:34:51;7.90;99.90
15364;DHT22;7781;49.690;6.472;2022-11-20T14:37:23;7.80;99.90
15364;DHT22;7781;49.690;6.472;2022-11-20T14:39:56;7.80;99.90
15364;DHT22;7781;49.690;6.472;2022-11-20T14:42:28;7.80;99.90
15364;DHT22;7781;49.690;6.472;2022-11-20T14:44:59;7.80;99.90
15364;DHT22;7781;49.690;6.472;2022-11-20T14:47:31;7.80;99.90
15364;DHT22;7781;49.690;6.472;2022-11-20T14:50:00;7.80;99.90
15364;DHT22;7781;49.690;6.472;2022-11-20T14:52:35;7.70;99.90
15364;DHT22;7781;49.690;6.472;2022-11-20T14:55:13;7.70;99.90
15364;DHT22;7781;49.690;6.472;2022-11-20T14:57:41;7.70;99.90
15364;DHT22;7781;49.690;6.472;2022-11-20T15:00:20;7.70;99.90
15364;DHT22;7781;49.690;6.472;2022-11-20T15:02:50;7.70;99.90
15364;DHT22;7781;49.690;6.472;2022-11-20T15:05:20;7.70;99.90
15364;DHT22;7781;49.690;6.472;2022-11-20T15:07:51;7.60;99.90
15364;DHT22;7781;49.690;6.472;2022-11-20T15:10:24;7.60;99.90
15364;DHT22;7781;49.690;6.472;2022-11-20T15:12:55;7.60;99.90
15364;DHT22;7781;49.690;6.472;2022-11-20T15:15:28;7.50;99.90
15364;DHT22;7781;49.690;6.472;2022-11-20T15:17:59;7.40;99.90
15364;DHT22;7781;49.690;6.472;2022-11-20T15:20:31;7.40;99.90
15364;DHT22;7781;49.690;6.472;2022-11-20T15:23:01;7.30;99.90
15364;DHT22;7781;49.690;6.472;2022-11-20T15:25:31;7.30;99.90
15364;DHT22;7781;49.690;6.472;2022-11-20T15:27:59;7.20;99.90
15364;DHT22;7781;49.690;6.472;2022-11-20T15:30:28;7.20;99.90
15364;DHT22;7781;49.690;6.472;2022-11-20T15:32:59;7.10;99.90
15364;DHT22;7781;49.690;6.472;2022-11-20T15:35:29;7.10;99.90
15364;DHT22;7781;49.690;6.472;2022-11-20T15:37:59;7.10;99.90
15364;DHT22;7781;49.690;6.472;2022-11-20T15:40:28;7.00;99.90
15364;DHT22;7781;49.690;6.472;2022-11-20T15:43:02;7.00;99.90
15364;DHT22;7781;49.690;6.472;2022-11-20T15:45:41;7.00;99.90
15364;DHT22;7781;49.690;6.472;2022-11-20T15:48:15;7.00;99.90
15364;DHT22;7781;49.690;6.472;2022-11-20T15:50:49;6.90;99.90
15364;DHT22;7781;49.690;6.472;2022-11-20T15:53:19;6.90;99.90
15364;DHT22;7781;49.690;6.472;2022-11-20T15:55:48;6.80;99.90
15364;DHT22;7781;49.690;6.472;2022-11-20T15:58:18;6.80;99.90
15364;DHT22;7781;49.690;6.472;2022-11-20T16:00:46;6.70;99.90
15364;DHT22;7781;49.690;6.472;2022-11-20T16:03:17;6.70;99.90
15364;DHT22;7781;49.690;6.472;2022-11-20T16:05:47;6.70;99.90
15364;DHT22;7781;49.690;6.472;2022-11-20T16:08:16;6.70;99.90
15364;DHT22;7781;49.690;6.472;2022-11-20T16:10:45;6.70;99.90
15364;DHT22;7781;49.690;6.472;2022-11-20T16:13:15;6.70;99.90
15364;DHT22;7781;49.690;6.472;2022-11-20T16:16:06;6.60;99.90
15364;DHT22;7781;49.690;6.472;2022-11-20T16:18:37;6.60;99.90
15364;DHT22;7781;49.690;6.472;2022-11-20T16:21:11;6.60;99.90
15364;DHT22;7781;49.690;6.472;2022-11-20T16:23:41;6.50;99.90
15364;DHT22;7781;49.690;6.472;2022-11-20T16:26:12;6.50;99.90
15364;DHT22;7781;49.690;6.472;2022-11-20T16:28:40;6.50;99.90
15364;DHT22;7781;49.690;6.472;2022-11-20T16:31:15;6.40;99.90
15364;DHT22;7781;49.690;6.472;2022-11-20T16:33:50;6.40;99.90
15364;DHT22;7781;49.690;6.472;2022-11-20T16:36:21;6.40;99.90
15364;DHT22;7781;49.690;6.472;2022-11-20T16:38:52;6.40;99.90